createdAt,value
2023-05-17T00:00:14.489Z,6.90
2023-05-17T00:02:43.949Z,6.90
2023-05-17T00:05:12.669Z,7.00
2023-05-17T00:07:40.708Z,7.00
2023-05-17T00:10:09.649Z,6.90
2023-05-17T00:12:37.849Z,6.90
2023-05-17T00:15:06.747Z,6.90
2023-05-17T00:17:34.814Z,6.80
2023-05-17T00:20:04.588Z,6.60
2023-05-17T00:22:32.533Z,6.50
2023-05-17T00:25:00.547Z,6.50
2023-05-17T00:27:28.439Z,6.60
2023-05-17T00:29:56.298Z,6.40
2023-05-17T00:32:24.336Z,6.30
2023-05-17T00:34:52.414Z,6.20
2023-05-17T00:37:21.786Z,6.20
2023-05-17T00:39:49.809Z,6.20
2023-05-17T00:42:17.737Z,6.10
2023-05-17T00:44:45.922Z,6.30
2023-05-17T00:47:13.946Z,6.20
2023-05-17T00:49:41.936Z,6.20
2023-05-17T00:52:10.001Z,6.20
2023-05-17T00:54:40.322Z,6.20
2023-05-17T00:57:09.915Z,6.20
2023-05-17T00:59:38.366Z,6.20
2023-05-17T01:02:07.040Z,6.10
2023-05-17T01:04:35.074Z,6.00
2023-05-17T01:07:03.082Z,6.00
2023-05-17T01:09:31.686Z,5.90
2023-05-17T01:12:11.065Z,5.80
2023-05-17T01:14:49.130Z,5.70
2023-05-17T01:17:22.029Z,5.70
2023-05-17T01:20:00.927Z,5.60
2023-05-17T01:22:40.095Z,5.60
2023-05-17T01:25:40.833Z,5.50
2023-05-17T01:28:11.827Z,5.40
2023-05-17T01:30:40.804Z,5.40
2023-05-17T01:33:10.044Z,5.40
2023-05-17T01:35:38.016Z,5.30
2023-05-17T01:38:05.977Z,5.30
2023-05-17T01:40:37.031Z,5.20
2023-05-17T01:43:16.280Z,5.20
2023-05-17T01:45:53.802Z,5.20
2023-05-17T01:48:24.853Z,5.20
2023-05-17T01:50:55.611Z,5.20
2023-05-17T01:53:31.216Z,5.20
2023-05-17T01:56:04.785Z,5.20
2023-05-17T01:58:45.676Z,5.10
2023-05-17T02:01:15.659Z,5.10
2023-05-17T02:03:43.907Z,5.10
2023-05-17T02:06:11.843Z,5.10
2023-05-17T02:08:39.819Z,5.00
2023-05-17T02:11:07.807Z,5.00
2023-05-17T02:13:37.080Z,5.00
2023-05-17T02:16:05.630Z,4.90
2023-05-17T02:18:35.507Z,4.90
2023-05-17T02:21:03.700Z,4.90
2023-05-17T02:23:31.612Z,5.00
2023-05-17T02:25:59.502Z,5.00
2023-05-17T02:28:28.579Z,5.00
2023-05-17T02:30:57.867Z,4.90
2023-05-17T02:33:25.921Z,4.90
2023-05-17T02:35:54.001Z,4.90
2023-05-17T02:38:22.004Z,5.00
2023-05-17T02:40:49.916Z,4.90
2023-05-17T02:43:17.892Z,5.00
2023-05-17T02:45:45.932Z,5.10
2023-05-17T02:48:15.723Z,5.20
2023-05-17T02:50:44.068Z,5.20
2023-05-17T02:53:12.069Z,5.20
2023-05-17T02:55:39.993Z,5.40
2023-05-17T02:58:07.954Z,5.50
2023-05-17T03:00:35.881Z,5.70
2023-05-17T03:03:03.960Z,5.70
2023-05-17T03:05:34.980Z,6.00
2023-05-17T03:08:02.895Z,6.20
2023-05-17T03:10:30.869Z,6.30
2023-05-17T03:12:58.854Z,6.40
2023-05-17T03:15:29.935Z,6.50
2023-05-17T03:17:58.236Z,6.50
2023-05-17T03:20:26.483Z,6.60
2023-05-17T03:22:55.787Z,6.80
2023-05-17T03:25:23.711Z,6.90
2023-05-17T03:27:51.676Z,6.80
2023-05-17T03:30:19.925Z,6.90
2023-05-17T03:32:48.045Z,7.00
2023-05-17T03:35:16.299Z,6.90
2023-05-17T03:37:44.194Z,6.90
2023-05-17T03:40:13.883Z,6.90
2023-05-17T03:42:41.881Z,6.80
2023-05-17T03:45:10.604Z,6.80
2023-05-17T03:47:38.675Z,6.90
2023-05-17T03:50:08.114Z,7.00
2023-05-17T03:52:36.350Z,7.10
2023-05-17T03:55:04.541Z,7.10
2023-05-17T03:57:33.863Z,7.20
2023-05-17T04:00:01.870Z,7.10
2023-05-17T04:02:29.905Z,7.20
2023-05-17T04:04:57.897Z,7.10
2023-05-17T04:07:25.988Z,7.10
2023-05-17T04:09:54.275Z,7.10
2023-05-17T04:12:22.190Z,7.20
2023-05-17T04:14:54.285Z,7.10
2023-05-17T04:17:22.361Z,7.40
2023-05-17T04:19:50.391Z,7.30
2023-05-17T04:22:18.531Z,7.30
2023-05-17T04:24:46.512Z,7.30
2023-05-17T04:27:14.471Z,7.40
2023-05-17T04:29:42.386Z,7.40
2023-05-17T04:32:11.756Z,7.60
2023-05-17T04:34:39.729Z,7.70
2023-05-17T04:37:07.917Z,7.80
2023-05-17T04:39:35.897Z,7.90
2023-05-17T04:42:04.384Z,8.10
2023-05-17T04:44:32.398Z,8.20
2023-05-17T04:47:00.368Z,8.30
2023-05-17T04:49:29.709Z,8.40
2023-05-17T04:51:57.639Z,8.70
2023-05-17T04:54:26.012Z,8.80
2023-05-17T04:56:53.922Z,8.90
2023-05-17T04:59:21.881Z,8.90
2023-05-17T05:01:49.827Z,8.90
2023-05-17T05:04:17.949Z,8.90
2023-05-17T05:06:47.350Z,9.20
2023-05-17T05:09:15.312Z,9.40
2023-05-17T05:11:44.854Z,9.70
2023-05-17T05:14:12.872Z,9.80
2023-05-17T05:16:40.836Z,9.90
2023-05-17T05:19:09.238Z,10.00
2023-05-17T05:21:37.622Z,10.30
2023-05-17T05:24:07.564Z,10.60
2023-05-17T05:26:35.469Z,10.30
2023-05-17T05:29:03.383Z,10.40
2023-05-17T05:31:31.499Z,10.60
2023-05-17T05:33:59.645Z,10.50
2023-05-17T05:36:27.717Z,10.70
2023-05-17T05:38:55.716Z,10.80
2023-05-17T05:41:24.977Z,11.20
2023-05-17T05:43:52.941Z,11.20
2023-05-17T05:46:20.916Z,11.60
2023-05-17T05:48:48.953Z,11.90
2023-05-17T05:51:17.002Z,12.10
2023-05-17T05:53:45.013Z,12.30
2023-05-17T05:56:13.087Z,12.40
2023-05-17T05:58:42.476Z,12.40
2023-05-17T06:01:10.540Z,11.90
2023-05-17T06:03:38.569Z,11.70
2023-05-17T06:06:07.141Z,11.10
2023-05-17T06:08:35.386Z,11.00
2023-05-17T06:11:03.481Z,11.20
2023-05-17T06:13:31.431Z,11.10
2023-05-17T06:16:00.746Z,11.10
2023-05-17T06:18:28.748Z,11.40
2023-05-17T06:20:56.723Z,11.40
2023-05-17T06:23:24.760Z,11.30
2023-05-17T06:25:53.453Z,11.20
2023-05-17T06:28:21.402Z,11.30
2023-05-17T06:30:49.408Z,11.10
2023-05-17T06:33:18.900Z,11.10
2023-05-17T06:35:56.066Z,10.90
2023-05-17T06:38:25.988Z,11.00
2023-05-17T06:40:54.665Z,11.00
2023-05-17T06:43:23.067Z,11.30
2023-05-17T06:45:51.476Z,11.50
2023-05-17T06:48:23.025Z,11.60
2023-05-17T06:50:51.256Z,11.50
2023-05-17T06:53:19.248Z,11.60
2023-05-17T06:55:47.299Z,11.60
2023-05-17T06:58:15.261Z,11.60
2023-05-17T07:00:43.217Z,11.70
2023-05-17T07:03:11.213Z,12.00
2023-05-17T07:05:43.441Z,12.10
2023-05-17T07:08:11.513Z,12.30
2023-05-17T07:10:39.454Z,12.20
2023-05-17T07:13:07.486Z,11.80
2023-05-17T07:15:35.481Z,11.50
2023-05-17T07:18:03.539Z,11.30
2023-05-17T07:20:31.678Z,11.10
2023-05-17T07:23:01.230Z,11.20
2023-05-17T07:25:29.449Z,11.50
2023-05-17T07:27:57.583Z,11.70
2023-05-17T07:30:25.773Z,12.10
2023-05-17T07:32:53.987Z,12.20
2023-05-17T07:35:22.095Z,12.50
2023-05-17T07:37:50.136Z,12.80
2023-05-17T07:40:19.902Z,12.60
2023-05-17T07:42:47.918Z,12.40
2023-05-17T07:45:16.074Z,12.40
2023-05-17T07:47:44.126Z,12.50
2023-05-17T07:50:12.764Z,12.50
2023-05-17T07:52:40.752Z,12.70
2023-05-17T07:55:09.700Z,13.10
2023-05-17T07:57:39.015Z,13.20
2023-05-17T08:00:08.985Z,13.10
2023-05-17T08:02:37.031Z,13.00
2023-05-17T08:05:05.447Z,12.60
2023-05-17T08:07:35.753Z,12.40
2023-05-17T08:10:03.833Z,12.20
2023-05-17T08:12:31.977Z,12.50
2023-05-17T08:15:01.318Z,12.70
2023-05-17T08:17:29.311Z,12.60
2023-05-17T08:19:57.645Z,12.80
2023-05-17T08:22:26.616Z,13.30
2023-05-17T08:24:54.616Z,13.60
2023-05-17T08:27:22.576Z,13.70
2023-05-17T08:29:51.860Z,13.80
2023-05-17T08:32:21.249Z,14.10
2023-05-17T08:34:49.271Z,14.40
2023-05-17T08:37:17.272Z,14.60
2023-05-17T08:39:45.341Z,14.50
2023-05-17T08:42:14.371Z,14.30
2023-05-17T08:44:43.420Z,14.10
2023-05-17T08:47:12.336Z,14.30
2023-05-17T08:49:42.282Z,14.00
2023-05-17T08:52:11.991Z,13.80
2023-05-17T08:54:40.067Z,13.80
2023-05-17T08:57:08.694Z,13.70
2023-05-17T08:59:37.267Z,13.80
2023-05-17T09:02:07.317Z,13.80
2023-05-17T09:04:35.385Z,13.90
2023-05-17T09:07:05.420Z,13.70
2023-05-17T09:09:34.211Z,13.50
2023-05-17T09:12:04.278Z,13.60
2023-05-17T09:14:35.978Z,14.00
2023-05-17T09:17:04.129Z,14.20
2023-05-17T09:19:32.721Z,14.20
2023-05-17T09:22:02.561Z,14.30
2023-05-17T09:24:32.131Z,13.80
2023-05-17T09:27:03.803Z,13.70
2023-05-17T09:29:33.435Z,13.70
2023-05-17T09:32:14.808Z,13.80
2023-05-17T09:34:43.378Z,13.80
2023-05-17T09:37:16.070Z,13.90
2023-05-17T09:39:46.894Z,13.60
2023-05-17T09:42:16.773Z,13.50
2023-05-17T09:44:49.695Z,13.60
2023-05-17T09:47:25.273Z,13.60
2023-05-17T09:49:53.330Z,13.70
2023-05-17T09:52:22.262Z,13.40
2023-05-17T09:54:55.164Z,13.30
2023-05-17T09:57:23.772Z,13.20
2023-05-17T09:59:53.059Z,13.30
2023-05-17T10:02:24.110Z,13.30
2023-05-17T10:04:54.024Z,13.30
2023-05-17T10:07:22.325Z,13.40
2023-05-17T10:09:51.018Z,13.20
2023-05-17T10:12:24.340Z,13.10
2023-05-17T10:14:56.083Z,13.00
2023-05-17T10:17:24.514Z,13.00
2023-05-17T10:19:53.442Z,12.90
2023-05-17T10:22:24.056Z,13.00
2023-05-17T10:24:53.130Z,13.10
2023-05-17T10:27:22.931Z,13.20
2023-05-17T10:29:53.127Z,13.10
2023-05-17T10:32:23.489Z,12.90
2023-05-17T10:35:05.957Z,13.00
2023-05-17T10:37:40.254Z,13.20
2023-05-17T10:40:13.082Z,13.20
2023-05-17T10:42:46.381Z,13.20
2023-05-17T10:45:14.759Z,13.10
2023-05-17T10:47:43.636Z,13.20
2023-05-17T10:50:14.933Z,13.20
2023-05-17T10:52:48.427Z,13.30
2023-05-17T10:55:20.650Z,13.40
2023-05-17T10:58:16.040Z,13.40
2023-05-17T11:00:47.150Z,13.40
2023-05-17T11:03:20.741Z,13.50
2023-05-17T11:06:23.494Z,13.60
2023-05-17T11:09:08.844Z,13.60
2023-05-17T11:11:36.885Z,13.70
2023-05-17T11:14:06.692Z,13.70
2023-05-17T11:16:37.724Z,13.70
2023-05-17T11:19:10.482Z,13.70
2023-05-17T11:21:46.913Z,13.60
2023-05-17T11:24:22.029Z,13.70
2023-05-17T11:26:51.889Z,13.70
2023-05-17T11:29:21.968Z,13.70
2023-05-17T11:31:53.654Z,13.70
2023-05-17T11:34:25.532Z,13.90
2023-05-17T11:36:54.532Z,13.80
2023-05-17T11:39:24.017Z,13.60
2023-05-17T11:41:54.521Z,13.70
2023-05-17T11:44:31.430Z,13.90
2023-05-17T11:47:04.365Z,13.90
2023-05-17T11:49:36.207Z,13.90
2023-05-17T11:52:05.745Z,14.00
2023-05-17T11:54:34.319Z,14.00
2023-05-17T11:57:03.950Z,14.20
2023-05-17T11:59:39.783Z,14.10
2023-05-17T12:02:07.936Z,14.20
2023-05-17T12:04:38.487Z,14.30
2023-05-17T12:07:10.455Z,14.60
2023-05-17T12:09:39.661Z,14.60
2023-05-17T12:12:08.621Z,14.40
2023-05-17T12:14:38.287Z,14.40
2023-05-17T12:17:09.544Z,14.40
2023-05-17T12:19:38.239Z,14.60
2023-05-17T12:22:12.496Z,14.70
2023-05-17T12:24:42.522Z,14.90
2023-05-17T12:27:11.222Z,15.10
2023-05-17T12:29:41.161Z,15.20
2023-05-17T12:32:11.107Z,15.10
2023-05-17T12:34:41.799Z,15.40
2023-05-17T12:37:11.141Z,15.50
2023-05-17T12:39:40.427Z,15.60
2023-05-17T12:42:09.877Z,15.70
2023-05-17T12:44:37.890Z,15.90
2023-05-17T12:47:07.728Z,15.90
2023-05-17T12:49:40.494Z,16.10
2023-05-17T12:52:09.014Z,16.00
2023-05-17T12:54:37.091Z,16.20
2023-05-17T12:57:13.773Z,16.20
2023-05-17T12:59:49.114Z,16.10
2023-05-17T13:02:19.949Z,16.20
2023-05-17T13:04:48.357Z,16.10
2023-05-17T13:07:24.766Z,16.40
2023-05-17T13:09:52.856Z,16.50
2023-05-17T13:12:22.914Z,16.60
2023-05-17T13:14:53.270Z,16.70
2023-05-17T13:17:27.214Z,16.80
2023-05-17T13:19:57.445Z,17.00
2023-05-17T13:22:26.410Z,17.00
2023-05-17T13:24:55.308Z,17.00
2023-05-17T13:27:23.263Z,16.60
2023-05-17T13:29:51.315Z,16.60
2023-05-17T13:32:19.318Z,16.40
2023-05-17T13:34:48.601Z,16.30
2023-05-17T13:37:16.685Z,16.60
2023-05-17T13:39:44.771Z,16.90
2023-05-17T13:42:13.963Z,17.10
2023-05-17T13:44:41.974Z,17.20
2023-05-17T13:47:10.063Z,17.20
2023-05-17T13:49:38.280Z,17.20
2023-05-17T13:52:09.879Z,17.20
2023-05-17T13:54:39.145Z,17.10
2023-05-17T13:57:07.820Z,16.90
2023-05-17T13:59:35.916Z,17.20
2023-05-17T14:02:04.825Z,17.20
2023-05-17T14:04:33.244Z,17.20
2023-05-17T14:07:01.872Z,17.30
2023-05-17T14:09:33.814Z,17.10
2023-05-17T14:12:02.198Z,16.90
2023-05-17T14:14:30.893Z,17.00
2023-05-17T14:16:58.956Z,16.80
2023-05-17T14:19:27.215Z,16.70
2023-05-17T14:21:55.980Z,16.80
2023-05-17T14:24:23.981Z,16.90
2023-05-17T14:26:53.509Z,16.80
2023-05-17T14:29:21.539Z,16.60
2023-05-17T14:31:49.645Z,16.60
2023-05-17T14:34:17.902Z,16.60
2023-05-17T14:36:46.047Z,16.70
2023-05-17T14:39:14.096Z,16.80
2023-05-17T14:41:44.158Z,16.60
2023-05-17T14:44:14.704Z,16.40
2023-05-17T14:46:42.681Z,16.40
2023-05-17T14:49:10.744Z,16.50
2023-05-17T14:51:38.896Z,16.60
2023-05-17T14:54:06.988Z,16.70
2023-05-17T14:56:35.305Z,16.60
2023-05-17T14:59:03.811Z,16.70
2023-05-17T15:01:33.408Z,16.40
2023-05-17T15:04:01.855Z,16.50
2023-05-17T15:06:30.255Z,16.60
2023-05-17T15:08:58.553Z,16.60
2023-05-17T15:11:27.231Z,16.40
2023-05-17T15:13:55.384Z,16.00
2023-05-17T15:16:23.485Z,15.80
2023-05-17T15:18:54.805Z,15.50
2023-05-17T15:21:24.009Z,15.50
2023-05-17T15:23:51.963Z,15.40
2023-05-17T15:26:19.985Z,15.30
2023-05-17T15:28:49.971Z,15.20
2023-05-17T15:31:18.045Z,15.20
2023-05-17T15:33:46.241Z,15.30
2023-05-17T15:36:16.423Z,15.50
2023-05-17T15:38:44.568Z,15.70
2023-05-17T15:41:14.883Z,15.80
2023-05-17T15:43:43.274Z,15.80
2023-05-17T15:46:11.799Z,15.60
2023-05-17T15:48:39.919Z,15.60
2023-05-17T15:51:08.006Z,15.50
2023-05-17T15:53:37.359Z,15.40
2023-05-17T15:56:05.756Z,15.40
2023-05-17T15:58:34.178Z,15.40
2023-05-17T16:01:05.088Z,15.50
2023-05-17T16:03:33.396Z,15.40
2023-05-17T16:06:01.563Z,15.50
2023-05-17T16:08:29.700Z,15.50
2023-05-17T16:11:00.870Z,15.50
2023-05-17T16:13:30.309Z,15.50
2023-05-17T16:15:58.980Z,15.50
2023-05-17T16:18:27.123Z,15.40
2023-05-17T16:21:02.994Z,15.40
2023-05-17T16:23:31.327Z,15.40
2023-05-17T16:26:00.668Z,15.40
2023-05-17T16:28:29.107Z,15.20
2023-05-17T16:30:57.165Z,15.30
2023-05-17T16:33:25.237Z,15.30
2023-05-17T16:35:53.358Z,15.30
2023-05-17T16:38:21.316Z,15.20
2023-05-17T16:40:50.451Z,15.10
2023-05-17T16:43:19.738Z,15.00
2023-05-17T16:45:47.881Z,15.00
2023-05-17T16:48:17.523Z,14.90
2023-05-17T16:50:45.981Z,14.80
2023-05-17T16:53:14.050Z,14.80
2023-05-17T16:55:42.230Z,14.80
2023-05-17T16:58:10.339Z,14.80
2023-05-17T17:00:39.693Z,14.70
2023-05-17T17:03:09.527Z,14.70
2023-05-17T17:05:37.951Z,14.60
2023-05-17T17:08:06.229Z,14.50
2023-05-17T17:10:36.013Z,14.50
2023-05-17T17:13:04.916Z,14.50
2023-05-17T17:15:33.001Z,14.30
2023-05-17T17:18:02.527Z,14.30
2023-05-17T17:20:30.878Z,14.30
2023-05-17T17:22:59.073Z,14.20
2023-05-17T17:25:27.199Z,14.10
2023-05-17T17:27:57.166Z,14.10
2023-05-17T17:30:25.293Z,14.10
2023-05-17T17:32:53.314Z,14.00
2023-05-17T17:35:23.012Z,13.90
2023-05-17T17:37:51.064Z,13.90
2023-05-17T17:40:19.187Z,13.80
2023-05-17T17:42:47.864Z,13.70
2023-05-17T17:45:15.868Z,13.70
2023-05-17T17:47:44.050Z,13.70
2023-05-17T17:50:12.459Z,13.60
2023-05-17T17:52:41.774Z,13.50
2023-05-17T17:55:12.978Z,13.50
2023-05-17T17:57:41.657Z,13.40
2023-05-17T18:00:12.013Z,13.30
2023-05-17T18:02:40.265Z,13.30
2023-05-17T18:05:09.044Z,13.20
2023-05-17T18:07:37.089Z,13.10
2023-05-17T18:10:07.428Z,13.00
2023-05-17T18:12:35.487Z,13.00
2023-05-17T18:15:03.546Z,12.90
2023-05-17T18:17:31.642Z,12.90
2023-05-17T18:19:59.637Z,12.80
2023-05-17T18:22:27.705Z,12.70
2023-05-17T18:24:55.677Z,12.60
2023-05-17T18:27:25.289Z,12.50
2023-05-17T18:29:53.448Z,12.40
2023-05-17T18:32:21.537Z,12.30
2023-05-17T18:34:49.475Z,12.20
2023-05-17T18:37:17.490Z,12.10
2023-05-17T18:39:45.460Z,12.10
2023-05-17T18:42:13.488Z,12.10
2023-05-17T18:44:42.783Z,12.00
2023-05-17T18:47:12.047Z,11.90
2023-05-17T18:49:42.228Z,11.80
2023-05-17T18:52:10.188Z,11.70
2023-05-17T18:54:38.131Z,11.60
2023-05-17T18:57:06.554Z,11.40
2023-05-17T18:59:34.557Z,11.30
2023-05-17T19:02:05.089Z,11.20
2023-05-17T19:04:33.262Z,11.10
2023-05-17T19:07:01.380Z,10.90
2023-05-17T19:09:29.378Z,10.80
2023-05-17T19:11:57.995Z,10.60
2023-05-17T19:14:26.162Z,10.40
2023-05-17T19:16:56.902Z,10.30
2023-05-17T19:19:26.876Z,10.10
2023-05-17T19:21:54.902Z,9.90
2023-05-17T19:24:22.790Z,9.80
2023-05-17T19:26:50.787Z,9.60
2023-05-17T19:29:18.962Z,9.40
2023-05-17T19:31:46.967Z,9.30
2023-05-17T19:34:15.017Z,9.20
2023-05-17T19:36:44.319Z,9.10
2023-05-17T19:39:12.419Z,9.00
2023-05-17T19:41:40.385Z,8.90
2023-05-17T19:44:08.721Z,8.80
2023-05-17T19:46:36.678Z,8.70
2023-05-17T19:49:05.003Z,8.70
2023-05-17T19:51:32.963Z,8.60
2023-05-17T19:54:02.295Z,8.50
2023-05-17T19:56:30.224Z,8.50
2023-05-17T19:58:58.151Z,8.40
2023-05-17T20:01:26.116Z,8.40
2023-05-17T20:03:54.316Z,8.40
2023-05-17T20:06:22.437Z,8.30
2023-05-17T20:08:50.364Z,8.30
2023-05-17T20:11:19.864Z,8.20
2023-05-17T20:13:47.874Z,8.20
2023-05-17T20:16:15.990Z,8.10
2023-05-17T20:18:44.512Z,8.00
2023-05-17T20:21:15.146Z,7.90
2023-05-17T20:23:43.276Z,7.90
2023-05-17T20:26:16.289Z,7.80
2023-05-17T20:28:45.791Z,7.70
2023-05-17T20:31:13.928Z,7.60
2023-05-17T20:33:44.070Z,7.60
2023-05-17T20:36:14.541Z,7.50
2023-05-17T20:38:43.354Z,7.50
2023-05-17T20:41:14.975Z,7.40
2023-05-17T20:43:46.468Z,7.40
2023-05-17T20:46:15.277Z,7.30
2023-05-17T20:48:46.080Z,7.30
2023-05-17T20:51:14.233Z,7.20
2023-05-17T20:53:42.332Z,7.10
2023-05-17T20:56:10.542Z,7.00
2023-05-17T20:58:38.573Z,7.00
2023-05-17T21:01:08.439Z,6.90
2023-05-17T21:03:39.907Z,6.80
2023-05-17T21:06:08.503Z,6.70
2023-05-17T21:08:37.422Z,6.60
2023-05-17T21:11:05.632Z,6.60
2023-05-17T21:13:34.024Z,6.50
2023-05-17T21:16:02.090Z,6.40
2023-05-17T21:18:31.474Z,6.40
2023-05-17T21:20:59.904Z,6.40
2023-05-17T21:23:27.845Z,6.30
2023-05-17T21:25:55.784Z,6.30
2023-05-17T21:28:24.980Z,6.20
2023-05-17T21:30:53.400Z,6.10
2023-05-17T21:33:22.266Z,6.10
2023-05-17T21:35:52.147Z,6.00
2023-05-17T21:38:20.108Z,6.00
2023-05-17T21:40:48.073Z,6.00
2023-05-17T21:43:16.062Z,5.90
2023-05-17T21:45:44.085Z,5.90
2023-05-17T21:48:12.179Z,5.90
2023-05-17T21:50:40.178Z,5.80
2023-05-17T21:53:09.532Z,5.80
2023-05-17T21:55:51.404Z,5.80
2023-05-17T21:58:25.529Z,5.80
2023-05-17T22:00:53.914Z,5.80
2023-05-17T22:03:22.307Z,5.80
2023-05-17T22:05:51.104Z,5.80
2023-05-17T22:08:20.512Z,5.80
2023-05-17T22:10:50.251Z,5.80
2023-05-17T22:13:19.137Z,5.80
2023-05-17T22:15:47.669Z,5.70
2023-05-17T22:18:15.652Z,5.70
2023-05-17T22:20:43.725Z,5.70
2023-05-17T22:23:11.865Z,5.70
2023-05-17T22:25:41.342Z,5.70
2023-05-17T22:28:09.300Z,5.70
2023-05-17T22:30:37.318Z,5.70
2023-05-17T22:33:05.326Z,5.70
2023-05-17T22:35:33.278Z,5.70
2023-05-17T22:38:01.251Z,5.70
2023-05-17T22:40:29.396Z,5.70
2023-05-17T22:42:59.715Z,5.60
2023-05-17T22:45:32.830Z,5.70
2023-05-17T22:48:02.917Z,5.60
2023-05-17T22:50:34.627Z,5.60
2023-05-17T22:53:02.611Z,5.60
2023-05-17T22:55:30.833Z,5.60
2023-05-17T22:58:00.491Z,5.50
2023-05-17T23:00:28.802Z,5.40
2023-05-17T23:02:56.893Z,5.40
2023-05-17T23:05:24.992Z,5.40
2023-05-17T23:07:53.473Z,5.40
2023-05-17T23:10:21.554Z,5.40
2023-05-17T23:12:52.060Z,5.30
2023-05-17T23:15:21.911Z,5.30
2023-05-17T23:17:50.993Z,5.20
2023-05-17T23:20:20.034Z,5.20
2023-05-17T23:22:48.621Z,5.10
2023-05-17T23:25:16.812Z,5.10
2023-05-17T23:27:44.836Z,5.00
2023-05-17T23:30:13.335Z,5.10
2023-05-17T23:32:46.706Z,5.00
2023-05-17T23:35:14.750Z,5.00
2023-05-17T23:37:42.987Z,4.90
2023-05-17T23:40:12.132Z,4.90
2023-05-17T23:42:41.764Z,4.90
2023-05-17T23:45:10.401Z,4.80
2023-05-17T23:47:41.064Z,4.80
2023-05-17T23:50:11.915Z,4.80
2023-05-17T23:52:40.085Z,4.70
2023-05-17T23:55:09.043Z,4.70
2023-05-17T23:57:37.850Z,4.70
